Flight Track Log - Related Links

Times and Time Zones

All times are in EST time to prevent confusion due to time zone crossing. See the N465TP flight status page for this flight to view local times or setup timezone preferences in your user account.

Time Position Orientation Groundspeed Altitude Reporting Facility
EST Latitude Longitude Course Direction KTS MPH feet Rate Location/Type
Thu 04:12:25 PM 45.7992 -108.5125 175° South 143 165 4,700  Level Salt Lake Center
Thu 04:13:26 PM 45.7622 -108.5081 175° South 151 174 6,200 1,525 Climbing Salt Lake Center
Thu 04:14:27 PM 45.7147 -108.5292 197° South 166 191 7,800 1,610 Climbing Salt Lake Center
Thu 04:15:29 PM 45.6725 -108.5467 196° South 161 185 9,500 1,463 Climbing Salt Lake Center
Thu 04:16:30 PM 45.6297 -108.5656 197° South 162 186 10,800 1,415 Climbing Salt Lake Center
Thu 04:17:32 PM 45.5800 -108.5867 197° South 172 198 12,400 1,366 Climbing Salt Lake Center
Thu 04:18:33 PM 45.5333 -108.6061 196° South 176 203 13,600 780 Climbing Salt Lake Center
Thu 04:19:35 PM 45.4750 -108.6317 197° South 201 231 14,000 195 Climbing Salt Lake Center
Thu 04:20:36 PM 45.4158 -108.6556 196° South 220 253 14,000 49 Level Salt Lake Center
Thu 04:21:37 PM 45.3572 -108.6800 196° South 221 254 14,100 49 Climbing Salt Lake Center
Thu 04:22:39 PM 45.2936 -108.7072 197° South 223 257 14,100  Level Salt Lake Center
Thu 04:23:40 PM 45.2350 -108.7319 197° South 223 257 14,100  Level Salt Lake Center
Thu 04:24:42 PM 45.1728 -108.7581 196° South 219 252 14,100  Level Salt Lake Center
Thu 04:25:43 PM 45.1150 -108.7811 196° South 217 250 14,100 -98 Level Salt Lake Center
Thu 04:26:45 PM 45.0639 -108.8044 198° South 213 245 13,900 -98 Descending Salt Lake Center
Thu 04:27:46 PM 45.0058 -108.8258 195° South 214 246 13,900  Level Salt Lake Center
Thu 04:28:47 PM 44.9347 -108.8517 194° South 219 252 13,900  Level Salt Lake Center
Thu 04:29:49 PM 44.8750 -108.8731 194° South 221 254 13,900  Level Salt Lake Center
Thu 04:30:50 PM 44.8169 -108.8942 194° South 219 252 13,900 -293 Level Salt Lake Center
Thu 04:31:52 PM 44.7608 -108.9164 196° South 216 249 13,300 -732 Descending Salt Lake Center
Thu 04:32:53 PM 44.7047 -108.9372 195° South 213 245 12,400 -976 Descending Salt Lake Center
Thu 04:33:55 PM 44.6483 -108.9575 194° South 210 242 11,300 -976 Descending Salt Lake Center
Thu 04:34:56 PM 44.5986 -108.9414 167° South 223 257 10,400 -934 Descending Salt Lake Center
Thu 04:35:57 PM 44.6406 -108.9214 19° North 205 236 9,400 -878 Descending Salt Lake Center
Thu 04:36:59 PM 44.6933 -108.9192 North 185 213 8,600 -683 Descending Salt Lake Center
Thu 04:38:00 PM 44.7169 -108.8672 57° Northeast 181 208 8,000 -341 Descending Salt Lake Center
Thu 04:39:02 PM 44.7047 -108.9189 252° West 179 206 7,900 -537 Descending Salt Lake Center
Thu 04:40:03 PM 44.6564 -108.9486 204° Southwest 185 213 6,900 -738 Descending Salt Lake Center
Thu 04:41:04 PM 44.6125 -108.9742 203° Southwest 180 207 6,400 -488 Descending Salt Lake Center
Thu 04:42:06 PM 44.5747 -108.9958 202° Southwest 167 192 5,900 -293 Descending Salt Lake Center
Thu 04:43:07 PM 44.5386 -109.0175 203° Southwest 156 180 5,800 -98 Descending Salt Lake Center
Thu 04:44:09 PM 44.5206 -109.0658 242° Southwest 145 167 5,700 -97 Descending Salt Lake Center

Login

Don't have an account? Register now (free) for customized features, flight alerts, and more!